x

Muskegon, Mi (mkgm4) Weather Station

11:30pm - Mon 23rd Oct 2017 All times are CDT. -5 hours from GMT.

  • Wind
    1mph, 2mph gusts
  • Air Temp 49°f
  • Sea Pressure 999.4mb
  • Muskegon, Mi
  • Muskegon, Mi

More Historic Weather Station data

Upgrade to MSW Pro to gain access to the past 30 days of data for over 8000 Wavebouys and Weather Stations around the globe.

Join

Comparision Forecast

View Surf forecast
   
Mon 10/23 11:30pm 1 2 mph 999.4mb 49f
11:20pm 3 3 mph 999.5mb 49f
11:10pm 2 2 mph 999.6mb 48f
11:00pm 3 3 mph 999.7mb 48f
10:50pm 3 6 mph 999.8mb 48f
10:40pm 3 5 mph 999.8mb 48f
10:30pm 6 7 mph 1000.1mb 49f
10:20pm 6 7 mph 1000.3mb 49f
10:10pm 5 6 mph 1000.5mb 49f
10:00pm 7 9 mph 1000.6mb 49f
9:50pm 7 9 mph 1000.8mb 49f
9:40pm 8 9 mph 1001.1mb 49f
9:30pm 8 10 mph 1001.2mb 49f
9:20pm 6 8 mph 1001.3mb 49f
9:10pm 10 13 mph 1001mb 49f
9:00pm 11 15 mph 1001.4mb 50f
8:50pm 9 13 mph 1001.2mb 50f
8:40pm 11 14 mph 1001.4mb 50f
8:30pm 14 17 mph 1001.5mb 50f
8:20pm 13 17 mph 1001.6mb 50f
8:10pm 15 20 mph 1001.6mb 51f
8:00pm 14 17 mph 1001.6mb 51f
7:50pm 15 17 mph 1001.6mb 51f
7:40pm 15 20 mph 1001.6mb 51f
7:30pm 14 17 mph 1001.7mb 51f
7:20pm 17 22 mph 1001.8mb 51f
7:10pm 17 22 mph 1002.2mb 52f
7:00pm 11 17 mph 1002.1mb 51f
6:50pm 13 16 mph 1002.2mb 51f
6:40pm 11 14 mph 1002.2mb 51f
6:30pm 13 18 mph 1002.5mb 51f
6:20pm 9 11 mph 1002.5mb 51f
6:10pm 10 13 mph 1002.5mb 52f
6:00pm 14 16 mph 1002.6mb 52f
5:50pm 13 14 mph 1002.8mb 52f
5:40pm 14 16 mph 1002.9mb 52f
5:30pm 9 11 mph 1003mb 51f
5:20pm 8 10 mph 1003.2mb 51f
5:10pm 8 9 mph 1003mb 52f
5:00pm 9 11 mph 1002.8mb 52f
4:50pm 10 14 mph 1003mb 52f
4:40pm 11 15 mph 1003.2mb 51f
4:30pm 10 14 mph 1003.1mb 51f
4:20pm 9 11 mph 1003mb 52f
4:10pm 9 13 mph 1003.2mb 52f
4:00pm 9 13 mph 1003.4mb 52f
3:50pm 9 13 mph 1003.5mb 52f
3:40pm 8 9 mph 1003.8mb 52f
3:30pm 10 15 mph 1003.8mb 52f
3:20pm 13 15 mph 1003.9mb 52f
3:10pm 13 16 mph 1004mb 52f
3:00pm 14 17 mph 1004mb 52f
2:50pm 11 16 mph 1004.4mb 52f
2:40pm 11 16 mph 1004.7mb 52f
2:30pm 15 17 mph 1005mb 52f
2:20pm 14 16 mph 1005.2mb 52f
2:10pm 10 14 mph 1005.6mb 52f
2:00pm 7 8 mph 1006.1mb 52f
1:50pm 5 6 mph 1006.6mb 52f
1:40pm 5 8 mph 1006.3mb 52f
1:30pm 7 9 mph 1006.3mb 52f
1:20pm 7 11 mph 1006.3mb 52f
1:10pm 13 16 mph 1005.9mb 52f
1:00pm 11 15 mph 1006.3mb 52f
12:50pm 7 8 mph 1007.3mb 52f
12:40pm 5 7 mph 1007.8mb 52f
12:30pm 6 7 mph 1008.1mb 52f
12:20pm 8 10 mph 1008.1mb 52f
12:10pm 6 8 mph 1008.2mb 52f
12:00pm 7 9 mph 1008.2mb 52f
11:50am 7 10 mph 1008.5mb 52f
11:40am 9 11 mph 1008.4mb 52f
11:30am 11 14 mph 1008.5mb 52f
11:20am 10 11 mph 1009.1mb 52f
11:10am 7 9 mph 1009.4mb 52f
11:00am 8 10 mph 1009.6mb 51f
10:50am 7 9 mph 1009.7mb 51f
10:40am 8 10 mph 1009.5mb 51f
10:30am 6 8 mph 1009.8mb 51f
10:20am 8 10 mph 1010.2mb 51f
10:10am 6 9 mph 1010.3mb 51f
10:00am 9 13 mph 1010.2mb 51f
9:50am 8 10 mph 1010.4mb 51f
9:40am 9 11 mph 1010.5mb 51f
9:30am 13 17 mph 1010.2mb 51f
9:20am 13 16 mph 1010.3mb 51f
9:10am 14 17 mph 1010.6mb 51f
9:00am 11 14 mph 1010.8mb 51f
8:50am 13 16 mph 1011.3mb 51f
8:40am 9 13 mph 1011.8mb 51f
8:30am 13 18 mph 1012.2mb 51f
8:20am 13 17 mph 1012.2mb 51f
8:10am 15 20 mph 1012.4mb 51f
8:00am 11 16 mph 1012.4mb 51f
7:50am 14 16 mph 1012.5mb 51f
7:40am 10 14 mph 1012.8mb 51f
7:30am 8 10 mph 1013.3mb 51f
7:20am 7 9 mph 1013.5mb 51f
7:10am 5 6 mph 1013.5mb 51f
7:00am 6 8 mph 1013.7mb 51f
6:50am 3 6 mph 1014mb 51f
6:40am 7 9 mph 1013.5mb 51f
6:30am 9 10 mph 1013.2mb 51f
6:20am 9 13 mph 1013.3mb 51f
6:10am 10 14 mph 1013mb 51f
6:00am 13 17 mph 1012.8mb 51f
5:50am 13 18 mph 1013.3mb 51f
5:40am 6 9 mph 1013.8mb 51f
5:30am 11 16 mph 1013.6mb 51f
5:20am 11 14 mph 1013.7mb 51f
5:10am 11 16 mph 1013.9mb 52f
5:00am 7 8 mph 1014.2mb 51f
4:50am 9 13 mph 1013.9mb 52f
4:40am 6 8 mph 1014.5mb 52f
4:30am 7 9 mph 1014.3mb 52f
4:20am 6 8 mph 1014.3mb 52f
4:10am 6 8 mph 1014.5mb 52f
4:00am 7 9 mph 1014.3mb 52f
3:50am 8 10 mph 1014.2mb 52f
3:40am 8 9 mph 1014.1mb 52f
3:30am 8 11 mph 1014.3mb 52f
3:20am 7 9 mph 1014.6mb 52f
3:10am 7 9 mph 1014.6mb 52f
3:00am 5 7 mph 1014.9mb 52f
2:50am 8 9 mph 1014.8mb 52f
2:40am 8 10 mph 1014.8mb 52f
2:30am 9 11 mph 1014.8mb 52f
2:20am 8 10 mph 1015.1mb 52f
2:10am 8 11 mph 1015.2mb 52f
2:00am 8 9 mph 1015.1mb 52f
1:50am 9 11 mph 1015.2mb 52f
1:40am 9 11 mph 1015.4mb 52f
1:30am 8 10 mph 1015.1mb 52f
1:20am 7 8 mph 1015.3mb 52f
1:10am 8 9 mph 1015.5mb 52f
1:00am 7 9 mph 1015.7mb 52f
12:50am 8 9 mph 1015.8mb 52f
12:40am 9 11 mph 1015.8mb 52f
12:30am 9 10 mph 1015.8mb 52f
12:20am 6 8 mph 1016mb 53f
12:10am 7 9 mph 1016.2mb 52f
12:00am 7 8 mph 1016.1mb 52f
Sun 10/22 11:50pm 8 9 mph 1016.1mb 53f
11:40pm 6 7 mph 1016.3mb 53f
11:30pm 8 8 mph 1016.1mb 53f
11:20pm 7 9 mph 1016.1mb 53f
11:10pm 8 10 mph 1016.2mb 53f
11:00pm 7 9 mph 1016.1mb 53f
10:50pm 9 11 mph 1016mb 53f
10:40pm 8 10 mph 1016.1mb 53f
10:30pm 8 10 mph 1016.2mb 53f
10:20pm 8 13 mph 1016.2mb 53f
10:10pm 9 11 mph 1016.2mb 53f
10:00pm 9 13 mph 1016.2mb 53f
9:50pm 10 13 mph 1016.2mb 53f
9:40pm 10 13 mph 1016.2mb 53f
9:30pm 10 13 mph 1016.3mb 53f
9:20pm 6 9 mph 1016.7mb 53f
9:10pm 7 9 mph 1016.4mb 52f
9:00pm 7 9 mph 1016.8mb 52f
8:50pm 8 11 mph 1016.8mb 52f
8:40pm 7 9 mph 1016.8mb 52f
8:30pm 9 11 mph 1017mb 52f
8:20pm 8 10 mph 1016.9mb 53f
8:10pm 9 13 mph 1016.8mb 53f
8:00pm 8 10 mph 1016.7mb 53f
7:50pm 9 11 mph 1016.7mb 53f
7:40pm 8 11 mph 1016.7mb 53f
7:30pm 11 14 mph 1016.7mb 53f
7:20pm 13 16 mph 1016.7mb 53f
7:10pm 7 13 mph 1016.7mb 53f
7:00pm 9 11 mph 1016.7mb 53f
6:50pm 11 15 mph 1016.7mb 53f
6:40pm 11 14 mph 1016.7mb 53f
6:30pm 8 10 mph 1016.3mb 53f
6:20pm 5 8 mph 1016mb 53f
6:10pm 8 10 mph 1016mb 53f
6:00pm 3 9 mph 1016.3mb 54f
5:50pm 9 14 mph 1016mb 54f
5:40pm 8 10 mph 1015.9mb 54f
5:30pm 10 13 mph 1015.7mb 54f
5:20pm 11 15 mph 1015.5mb 55f
5:10pm 14 16 mph 1015.3mb 55f
5:00pm 11 14 mph 1015mb 56f
4:50pm 11 15 mph 1014.9mb 56f
4:40pm 10 13 mph 1014.9mb 56f
4:30pm 8 13 mph 1015.2mb 56f
4:20pm 13 16 mph 1015mb 56f
4:10pm 15 21 mph 1014.8mb 56f
4:00pm 16 22 mph 1015mb 56f
3:50pm 23 29 mph 1015mb 56f
3:40pm 26 30 mph 1015mb 60f
3:30pm 24 29 mph 1014.4mb 62f
3:20pm 18 21 mph 1013.4mb 63f
3:10pm 20 21 mph 1013.2mb 63f
3:00pm 16 17 mph 1013.2mb 62f
2:50pm 17 17 mph 1013.1mb 63f
2:40pm 18 20 mph 1013.1mb 63f
2:30pm 18 20 mph 1012.9mb 63f
2:20pm 21 23 mph 1013.3mb 63f
2:10pm 21 23 mph 1013.2mb 63f
2:00pm 23 25 mph 1013.3mb 63f
1:50pm 23 25 mph 1013.4mb 63f
1:40pm 25 26 mph 1013.4mb 64f
1:30pm 22 24 mph 1013.8mb 64f
1:20pm 21 23 mph 1013.8mb 64f
1:10pm 21 22 mph 1013.8mb 64f
1:00pm 21 22 mph 1013.8mb 64f
12:50pm 21 23 mph 1014mb 63f
12:40pm 21 23 mph 1014.3mb 63f
12:30pm 21 22 mph 1014.5mb 63f
12:20pm 22 22 mph 1014.5mb 63f
12:10pm 23 23 mph 1014.6mb 65f
12:00pm 20 21 mph 1014.5mb 65f
11:50am 21 22 mph 1014.7mb 65f
11:40am 20 22 mph 1014.9mb 65f
11:30am 21 22 mph 1015.1mb 65f
11:20am 21 23 mph 1015.1mb 65f
11:10am 21 23 mph 1015.1mb 65f
11:00am 21 23 mph 1015.1mb 65f
10:50am 22 23 mph 1015.1mb 65f
10:40am 23 25 mph 1015mb 66f
10:30am 22 24 mph 1015mb 66f
10:20am 21 25 mph 1015.1mb 65f
10:10am 22 25 mph 1015.1mb 65f
10:00am 24 25 mph 1015.1mb 65f
9:50am 22 24 mph 1015mb 66f
9:40am 22 26 mph 1015.1mb 65f
9:30am 22 25 mph 1015.2mb 65f
9:20am 22 25 mph 1015.2mb 65f
9:10am 22 24 mph 1015.4mb 65f
9:00am 21 23 mph 1015.4mb 65f
8:50am 22 24 mph 1015.4mb 66f
8:40am 22 24 mph 1015.5mb 66f
8:30am 22 24 mph 1015.2mb 66f
8:20am 21 24 mph 1015.2mb 66f
8:10am 22 25 mph 1015mb 66f
8:00am 22 25 mph 1015mb 66f
7:50am 23 26 mph 1014.8mb 66f
7:40am 22 25 mph 1014.7mb 65f
7:30am 23 26 mph 1014.8mb 65f
7:20am 26 29 mph 1014.7mb 65f
7:10am 26 30 mph 1014.7mb 65f
7:00am 26 30 mph 1014.6mb 65f
6:50am 29 32 mph 1014.6mb 65f
6:40am 26 30 mph 1014.6mb 64f
6:30am 28 30 mph 1014.8mb 64f
6:20am 25 29 mph 1015mb 64f
6:10am 24 26 mph 1015mb 64f
6:00am 24 28 mph 1015.1mb 64f
5:50am 28 32 mph 1015.1mb 64f
5:40am 24 29 mph 1015.2mb 64f
5:30am 24 26 mph 1015.2mb 65f
5:20am 26 28 mph 1015.1mb 64f
5:10am 25 29 mph 1015.1mb 64f
5:00am 24 25 mph 1015.1mb 64f
4:50am 24 26 mph 1015.1mb 64f
4:40am 22 25 mph 1015.2mb 64f
4:30am 22 25 mph 1015.3mb 64f
4:20am 22 26 mph 1015.5mb 64f
4:10am 25 29 mph 1015.6mb 64f
4:00am 22 24 mph 1015.6mb 64f
3:50am 22 26 mph 1015.6mb 64f
3:40am 21 25 mph 1015.8mb 64f
3:30am 24 25 mph 1015.9mb 64f
3:20am 23 26 mph 1015.9mb 64f
3:10am 22 24 mph 1016.1mb 63f
3:00am 21 24 mph 1016.2mb 63f
2:50am 20 23 mph 1016.2mb 63f
2:40am 22 24 mph 1016.5mb 63f
2:30am 21 23 mph 1016.7mb 63f
2:20am 21 24 mph 1016.7mb 63f
2:10am 22 23 mph 1016.8mb 63f
2:00am 22 24 mph 1016.8mb 63f
1:50am 20 24 mph 1016.8mb 63f
1:40am 18 22 mph 1016.8mb 63f
1:30am 22 24 mph 1016.8mb 64f
1:20am 21 23 mph 1016.8mb 64f
1:10am 21 23 mph 1016.8mb 64f
1:00am 21 24 mph 1016.9mb 64f
12:50am 22 24 mph 1016.9mb 64f
12:40am 23 25 mph 1016.8mb 64f
12:30am 23 25 mph 1016.7mb 64f
12:20am 22 25 mph 1016.7mb 64f
12:10am 22 24 mph 1016.7mb 65f
12:00am 21 23 mph 1016.7mb 65f
Sat 10/21 11:50pm 20 23 mph 1016.4mb 64f
11:40pm 20 22 mph 1016.7mb 65f
11:30pm 20 23 mph 1016.7mb 65f
11:20pm 21 24 mph 1016.7mb 65f
11:10pm 22 24 mph 1016.6mb 65f
11:00pm 21 24 mph 1016.6mb 65f
10:50pm 21 23 mph 1016.6mb 65f
10:40pm 20 22 mph 1016.6mb 65f
10:30pm 20 23 mph 1016.6mb 65f
10:20pm 20 22 mph 1016.7mb 65f
10:10pm 20 22 mph 1016.7mb 65f
10:00pm 20 23 mph 1016.6mb 65f
9:50pm 21 23 mph 1016.6mb 65f
9:40pm 20 22 mph 1016.6mb 65f
9:30pm 20 21 mph 1016.9mb 65f
9:20pm 20 21 mph 1016.9mb 65f
9:10pm 21 22 mph 1016.8mb 66f
9:00pm 21 22 mph 1016.8mb 66f
8:50pm 20 23 mph 1016.8mb 67f
8:40pm 18 21 mph 1016.8mb 67f
8:30pm 21 22 mph 1016.8mb 68f
8:20pm 20 22 mph 1016.8mb 67f
8:10pm 22 24 mph 1016.7mb 68f
8:00pm 22 24 mph 1016.7mb 68f
7:50pm 21 23 mph 1016.7mb 69f
7:40pm 17 22 mph 1016.7mb 69f
7:30pm 18 21 mph 1016.7mb 70f
7:20pm 15 20 mph 1016.7mb 70f
7:10pm 13 17 mph 1016.7mb 70f
7:00pm 14 16 mph 1016.7mb 70f
6:50pm 14 16 mph 1016.7mb 70f
6:40pm 15 20 mph 1016.6mb 71f
6:30pm 14 18 mph 1016.7mb 70f
6:20pm 14 18 mph 1016.6mb 70f
6:10pm 14 17 mph 1016.5mb 70f
6:00pm 17 20 mph 1016.4mb 70f
5:50pm 14 18 mph 1016.4mb 70f
5:40pm 16 17 mph 1016.5mb 66f
5:30pm 14 15 mph 1016.3mb 66f
5:20pm 17 20 mph 1016.4mb 66f
5:10pm 18 20 mph 1016.2mb 66f
5:00pm 20 21 mph 1016.6mb 65f
4:50pm 20 21 mph 1016.6mb 65f
4:40pm 17 20 mph 1016.5mb 67f
4:30pm 16 18 mph 1016.5mb 67f
4:20pm 20 22 mph 1016.6mb 65f
4:10pm 21 22 mph 1016.6mb 65f
4:00pm 21 23 mph 1016.6mb 65f
3:50pm 20 23 mph 1016.6mb 66f
3:40pm 21 24 mph 1016.6mb 66f
3:30pm 21 23 mph 1016.5mb 67f
3:20pm 21 23 mph 1016.5mb 67f
3:10pm 21 23 mph 1016.6mb 67f
3:00pm 23 25 mph 1016.6mb 66f
2:50pm 22 24 mph 1016.8mb 66f
2:40pm 21 23 mph 1017mb 66f
2:30pm 21 23 mph 1017.2mb 66f
2:20pm 22 23 mph 1017.2mb 66f
2:10pm 21 23 mph 1017.5mb 66f
2:00pm 22 23 mph 1017.5mb 67f
1:50pm 21 24 mph 1017.7mb 67f
1:40pm 18 21 mph 1017.7mb 66f
1:30pm 18 22 mph 1017.8mb 65f
1:20pm 18 21 mph 1017.8mb 65f
1:10pm 20 23 mph 1018mb 64f
1:00pm 20 23 mph 1018.2mb 65f
12:50pm 18 20 mph 1018.5mb 65f
12:40pm 18 21 mph 1018.5mb 66f
12:30pm 20 22 mph 1018.5mb 65f
12:20pm 20 23 mph 1018.9mb 64f
12:10pm 20 22 mph 1018.8mb 65f
12:00pm 21 23 mph 1018.9mb 64f
11:50am 22 24 mph 1019mb 64f
11:40am 21 23 mph 1019.2mb 64f
11:30am 21 22 mph 1019.3mb 64f
11:20am 21 23 mph 1019.1mb 63f
11:10am 22 24 mph 1019.3mb 63f
11:00am 22 24 mph 1019.4mb 63f
10:50am 23 25 mph 1019.3mb 63f
10:40am 24 28 mph 1019mb 64f
10:30am 23 25 mph 1019mb 63f
10:20am 23 28 mph 1018.9mb 63f
10:10am 21 25 mph 1018.7mb 63f
10:00am 24 28 mph 1018.7mb 62f
9:50am 21 24 mph 1019mb 63f
9:40am 23 25 mph 1019mb 63f
9:30am 23 25 mph 1019.2mb 62f
9:20am 21 24 mph 1019.1mb 62f
9:10am 21 25 mph 1019mb 62f
9:00am 21 26 mph 1019mb 62f
8:50am 23 25 mph 1019.1mb 62f
8:40am 21 23 mph 1019.2mb 62f
8:30am 23 28 mph 1019.1mb 62f
8:20am 22 24 mph 1019.2mb 62f
8:10am 21 23 mph 1018.7mb 62f
8:00am 20 23 mph 1018.7mb 62f
7:50am 23 26 mph 1018.8mb 62f
7:40am 22 24 mph 1018.5mb 62f
7:30am 21 23 mph 1018.7mb 62f
7:20am 20 23 mph 1018.8mb 62f
7:10am 21 23 mph 1018.7mb 62f
7:00am 21 23 mph 1018.8mb 62f
6:50am 20 21 mph 1018.8mb 61f
6:40am 20 23 mph 1018.8mb 61f
6:30am 20 22 mph 1018.8mb 61f
6:20am 20 22 mph 1018.6mb 61f
6:10am 20 22 mph 1018.9mb 61f
6:00am 18 21 mph 1018.9mb 61f
5:50am 16 18 mph 1018.7mb 61f
5:40am 17 20 mph 1018.7mb 61f
5:30am 17 18 mph 1018.8mb 61f
5:20am 16 18 mph 1018.6mb 61f
5:10am 17 20 mph 1018.6mb 61f
5:00am 17 18 mph 1018.6mb 61f
4:50am 16 18 mph 1018.6mb 61f
4:40am 16 18 mph 1018.6mb 61f
4:30am 16 17 mph 1018.6mb 61f
4:20am 15 17 mph 1018.7mb 61f
4:10am 16 18 mph 1018.6mb 61f
4:00am 15 17 mph 1018.7mb 61f
3:50am 15 17 mph 1018.4mb 61f
3:40am 15 17 mph 1018.6mb 62f
3:30am 16 17 mph 1018.6mb 62f
3:20am 16 18 mph 1018.6mb 62f
3:10am 17 20 mph 1018.6mb 62f
3:00am 16 18 mph 1018.6mb 62f
2:50am 17 18 mph 1018.6mb 62f
2:40am 16 18 mph 1018.6mb 62f
2:30am 17 18 mph 1018.6mb 62f
2:20am 17 18 mph 1018.6mb 62f
2:10am 17 20 mph 1018.5mb 62f
2:00am 15 17 mph 1018.4mb 62f
1:50am 16 17 mph 1018.5mb 62f
1:40am 18 21 mph 1018.3mb 62f
1:30am 18 20 mph 1018.3mb 62f
1:20am 18 22 mph 1018.2mb 62f
1:10am 16 20 mph 1018.2mb 62f
1:00am 17 18 mph 1018.3mb 62f
12:50am 17 18 mph 1018.2mb 62f
12:40am 20 21 mph 1018.2mb 63f
12:30am 18 20 mph 1018.2mb 63f
12:20am 18 21 mph 1018.2mb 63f
12:10am 17 20 mph 1018mb 63f
12:00am 20 21 mph 1018mb 63f
Fri 10/20 11:50pm 18 21 mph 1017.8mb 63f
11:40pm 16 18 mph 1017.8mb 63f
11:30pm 16 20 mph 1017.8mb 63f
11:20pm 17 20 mph 1017.8mb 63f
11:10pm 18 21 mph 1017.9mb 63f
11:00pm 18 20 mph 1018mb 63f
10:50pm 18 21 mph 1017.9mb 64f
10:40pm 18 22 mph 1017.9mb 64f
10:30pm 18 21 mph 1017.8mb 64f
10:20pm 18 21 mph 1017.8mb 64f
10:10pm 20 21 mph 1017.8mb 64f
10:00pm 21 22 mph 1017.8mb 64f
9:50pm 22 23 mph 1017.7mb 65f
9:40pm 21 22 mph 1017.7mb 65f
9:30pm 20 22 mph 1017.7mb 64f
9:20pm 21 21 mph 1017.7mb 65f
9:10pm 20 21 mph 1017.7mb 65f
9:00pm 20 21 mph 1017.7mb 65f
8:50pm 20 23 mph 1017.7mb 65f
8:40pm 17 18 mph 1017.7mb 64f
8:30pm 15 17 mph 1017.9mb 61f
8:20pm 9 9 mph 1017.8mb 62f
8:10pm 11 13 mph 1017.8mb 63f
8:00pm 15 15 mph 1017.8mb 63f
7:50pm 16 16 mph 1017.8mb 63f
7:40pm 17 18 mph 1017.8mb 63f
7:30pm 17 18 mph 1017.7mb 63f
7:20pm 16 17 mph 1017.8mb 63f
7:10pm 16 18 mph 1017.7mb 64f
7:00pm 17 18 mph 1017.7mb 64f
6:50pm 17 18 mph 1017.7mb 63f
6:40pm 15 17 mph 1017.7mb 63f
6:30pm 16 17 mph 1017.8mb 63f
6:20pm 15 16 mph 1017.7mb 63f
6:10pm 16 17 mph 1017.7mb 63f
6:00pm 16 16 mph 1017.7mb 63f
5:50pm 16 17 mph 1017.9mb 64f
5:40pm 16 17 mph 1017.9mb 64f
5:30pm 15 17 mph 1017.9mb 64f
5:20pm 16 17 mph 1018mb 64f
5:10pm 16 17 mph 1018.1mb 65f
5:00pm 15 16 mph 1018.1mb 65f
4:50pm 15 16 mph 1018.1mb 65f
4:40pm 15 16 mph 1018.2mb 65f
4:30pm 16 17 mph 1018.2mb 65f
4:20pm 16 18 mph 1018.4mb 65f
4:10pm 16 17 mph 1018.4mb 64f
4:00pm 14 15 mph 1018.4mb 64f
3:50pm 15 16 mph 1018.6mb 65f
3:40pm 15 16 mph 1018.5mb 66f
3:30pm 14 15 mph 1018.7mb 64f
3:20pm 13 14 mph 1018.8mb 65f
3:10pm 13 14 mph 1018.8mb 65f
3:00pm 13 14 mph 1019mb 65f
2:50pm 14 15 mph 1019.2mb 65f
2:40pm 13 15 mph 1019.3mb 65f
2:30pm 14 15 mph 1019.4mb 65f
2:20pm 14 15 mph 1019.5mb 65f
2:10pm 15 16 mph 1019.5mb 65f
2:00pm 14 15 mph 1019.5mb 65f
1:50pm 15 16 mph 1019.7mb 65f
1:40pm 15 16 mph 1019.9mb 65f
1:30pm 14 16 mph 1020.1mb 65f
1:20pm 16 17 mph 1020.1mb 65f
1:10pm 16 17 mph 1020.2mb 65f
1:00pm 16 17 mph 1020.3mb 64f
12:50pm 16 18 mph 1020.3mb 64f
12:40pm 16 18 mph 1020.6mb 64f
12:30pm 15 18 mph 1020.6mb 64f
12:20pm 16 18 mph 1020.8mb 64f
12:10pm 16 17 mph 1021mb 64f
12:00pm 16 18 mph 1021mb 64f
11:50am 16 18 mph 1021.1mb 64f
11:00am 15 17 mph 1021.5mb 62f
10:50am 17 18 mph 1021.5mb 62f
9:50am 17 20 mph 1021.7mb 61f
9:30am 17 18 mph 1021.9mb 60f
9:20am 16 18 mph 1021.9mb 60f
9:10am 16 18 mph 1021.9mb 60f
9:00am 17 20 mph 1021.9mb 60f
8:50am 16 20 mph 1021.9mb 60f
8:40am 15 17 mph 1021.9mb 60f
8:30am 16 18 mph 1021.9mb 60f
8:20am 17 18 mph 1022mb 60f
8:10am 16 17 mph 1022mb 60f
8:00am 15 17 mph 1021.8mb 59f
7:50am 15 16 mph 1021.7mb 59f
7:40am 15 17 mph 1021.6mb 60f
7:30am 15 16 mph 1021.7mb 59f
7:20am 16 17 mph 1021.7mb 59f
7:10am 16 18 mph 1021.6mb 59f
7:00am 17 20 mph 1021.5mb 59f
6:50am 17 18 mph 1021.5mb 59f
6:40am 18 20 mph 1021.5mb 59f
6:30am 18 20 mph 1021.5mb 59f
6:20am 15 17 mph 1021.5mb 58f
6:10am 14 16 mph 1021.3mb 58f
6:00am 15 16 mph 1021.3mb 58f
5:50am 15 17 mph 1021.3mb 59f
5:40am 15 17 mph 1021.4mb 58f
5:30am 11 15 mph 1021.5mb 57f
5:20am 13 14 mph 1021.5mb 56f